CheckWX is a tool to help pilots better visualize weather data.  It is not intended as a substitute for an official pre-flight weather briefing.

15:20:49 UTC

KBPK TAF
Baxter County Airport
Mountain Home, Arkansas, USA
KBPK 231135Z 2312/2412 09006KT P6SM BKN250 FM231600 13008G16KT P6SM VCSH SCT100 OVC250 FM232000 14010G18KT P6SM SCT050 OVC100 FM240000 14008KT P6SM VCSH OVC050 PROB30 2406/2412 4SM -SHRA BR OVC025

Mar-23@
12:00 UTC

Mar-23 @ 12:00 UTC

Mar-23@
16:00 UTC

Mar-23 @ 16:00 UTC

KBPK 231135Z 2312/2412 09006KT P6SM BKN250
Wind
  • 090° at 6 KTS
Cloud Levels
  • Broken at 25,000' AGL

Mar-23@
16:00 UTC

Mar-23 @ 16:00 UTC

Mar-23@
20:00 UTC

Mar-23 @ 20:00 UTC

FM231600 13008G16KT P6SM VCSH SCT100 OVC250

From

From Standard forecast or significant change

Wind
  • 130° at 8 KTS
  • {Gusting to 16 KTS
Cloud Levels
  • Scattered at 10,000' AGL
  • Overcast at 25,000' AGL

Mar-23@
20:00 UTC

Mar-23 @ 20:00 UTC

Mar-24@
00:00 UTC

Mar-24 @ 00:00 UTC

FM232000 14010G18KT P6SM SCT050 OVC100

From

From Standard forecast or significant change

Wind
  • 140° at 10 KTS
  • {Gusting to 18 KTS
Cloud Levels
  • Scattered at 5,000' AGL
  • Overcast at 10,000' AGL

Mar-24@
00:00 UTC

Mar-24 @ 00:00 UTC

Mar-24@
12:00 UTC

Mar-24 @ 12:00 UTC

FM240000 14008KT P6SM VCSH OVC050

From

From Standard forecast or significant change

Wind
  • 140° at 8 KTS
Cloud Levels
  • Overcast at 5,000' AGL

Mar-24@
06:00 UTC

Mar-24 @ 06:00 UTC

Mar-24@
12:00 UTC

Mar-24 @ 12:00 UTC

PROB30 2406/2412 4SM -SHRA BR OVC025

Probable - 30% Likelihood

Probable - 30% Likelihood during this time.

Conditions
Light Rain, Mist
Cloud Levels
  • Overcast at 2,500' AGL